sensor_id;sensor_type;location;lat;lon;timestamp;pressure;altitude;pressure_sealevel;temperature;humidity
2785;BME280;57944;48.722;9.316;2023-09-19T00:02:03;97704.72;;;16.25;100.00
2785;BME280;57944;48.722;9.316;2023-09-19T00:04:36;97701.09;;;16.26;100.00
2785;BME280;57944;48.722;9.316;2023-09-19T00:07:08;97712.13;;;16.22;100.00
2785;BME280;57944;48.722;9.316;2023-09-19T00:09:39;97710.72;;;16.14;100.00
2785;BME280;57944;48.722;9.316;2023-09-19T00:12:14;97717.88;;;16.12;100.00
2785;BME280;57944;48.722;9.316;2023-09-19T00:14:45;97727.69;;;16.15;100.00
2785;BME280;57944;48.722;9.316;2023-09-19T00:17:16;97731.88;;;16.04;100.00
2785;BME280;57944;48.722;9.316;2023-09-19T00:19:46;97735.31;;;16.10;100.00
2785;BME280;57944;48.722;9.316;2023-09-19T00:22:19;97737.44;;;16.13;100.00
2785;BME280;57944;48.722;9.316;2023-09-19T00:24:49;97735.78;;;16.07;100.00
2785;BME280;57944;48.722;9.316;2023-09-19T00:27:23;97747.16;;;16.11;100.00
2785;BME280;57944;48.722;9.316;2023-09-19T00:29:53;97747.16;;;16.11;100.00
2785;BME280;57944;48.722;9.316;2023-09-19T00:32:24;97745.00;;;16.20;100.00
2785;BME280;57944;48.722;9.316;2023-09-19T00:34:59;97750.91;;;16.20;100.00
2785;BME280;57944;48.722;9.316;2023-09-19T00:37:30;97748.97;;;16.27;100.00
2785;BME280;57944;48.722;9.316;2023-09-19T00:40:02;97739.84;;;16.37;100.00
2785;BME280;57944;48.722;9.316;2023-09-19T00:42:35;97745.94;;;16.30;100.00
2785;BME280;57944;48.722;9.316;2023-09-19T00:45:08;97742.25;;;16.43;100.00
2785;BME280;57944;48.722;9.316;2023-09-19T00:47:40;97741.00;;;16.46;100.00
2785;BME280;57944;48.722;9.316;2023-09-19T00:50:12;97744.59;;;16.45;100.00
2785;BME280;57944;48.722;9.316;2023-09-19T00:52:45;97747.16;;;16.45;100.00
2785;BME280;57944;48.722;9.316;2023-09-19T00:55:17;97740.13;;;16.57;100.00
2785;BME280;57944;48.722;9.316;2023-09-19T00:57:52;97745.81;;;16.59;100.00
2785;BME280;57944;48.722;9.316;2023-09-19T01:00:23;97748.94;;;16.61;100.00
2785;BME280;57944;48.722;9.316;2023-09-19T01:02:54;97752.06;;;16.63;100.00
2785;BME280;57944;48.722;9.316;2023-09-19T01:05:25;97756.66;;;16.61;100.00
2785;BME280;57944;48.722;9.316;2023-09-19T01:07:57;97757.75;;;16.48;100.00
2785;BME280;57944;48.722;9.316;2023-09-19T01:10:28;97761.50;;;16.58;100.00
2785;BME280;57944;48.722;9.316;2023-09-19T01:13:08;97765.84;;;16.74;100.00
2785;BME280;57944;48.722;9.316;2023-09-19T01:16:02;97760.31;;;16.65;100.00
2785;BME280;57944;48.722;9.316;2023-09-19T01:18:40;97757.91;;;16.59;100.00
2785;BME280;57944;48.722;9.316;2023-09-19T01:21:18;97762.13;;;16.48;100.00
2785;BME280;57944;48.722;9.316;2023-09-19T01:27:06;97761.09;;;16.66;100.00
2785;BME280;57944;48.722;9.316;2023-09-19T01:29:46;97756.75;;;16.66;100.00
2785;BME280;57944;48.722;9.316;2023-09-19T01:32:21;97758.22;;;16.62;100.00
2785;BME280;57944;48.722;9.316;2023-09-19T01:34:57;97760.88;;;16.67;100.00
2785;BME280;57944;48.722;9.316;2023-09-19T01:37:31;97766.31;;;16.71;100.00
2785;BME280;57944;48.722;9.316;2023-09-19T01:40:05;97766.00;;;16.67;100.00
2785;BME280;57944;48.722;9.316;2023-09-19T01:42:48;97769.13;;;16.69;100.00
2785;BME280;57944;48.722;9.316;2023-09-19T01:45:28;97775.47;;;16.79;100.00
2785;BME280;57944;48.722;9.316;2023-09-19T01:48:15;97771.22;;;16.72;100.00
2785;BME280;57944;48.722;9.316;2023-09-19T01:51:00;97773.97;;;16.83;100.00
2785;BME280;57944;48.722;9.316;2023-09-19T01:53:50;97778.81;;;16.79;100.00
2785;BME280;57944;48.722;9.316;2023-09-19T01:56:25;97784.28;;;16.83;100.00
2785;BME280;57944;48.722;9.316;2023-09-19T01:59:04;97788.41;;;16.84;100.00
2785;BME280;57944;48.722;9.316;2023-09-19T02:01:37;97786.38;;;16.69;100.00
2785;BME280;57944;48.722;9.316;2023-09-19T02:04:11;97788.63;;;16.65;100.00
2785;BME280;57944;48.722;9.316;2023-09-19T02:06:42;97790.03;;;16.73;100.00
2785;BME280;57944;48.722;9.316;2023-09-19T02:09:20;97791.56;;;16.74;100.00
2785;BME280;57944;48.722;9.316;2023-09-19T02:11:51;97798.91;;;16.65;100.00
2785;BME280;57944;48.722;9.316;2023-09-19T02:14:23;97800.09;;;16.58;100.00
2785;BME280;57944;48.722;9.316;2023-09-19T02:16:55;97806.72;;;16.70;100.00
2785;BME280;57944;48.722;9.316;2023-09-19T02:19:29;97808.72;;;16.68;100.00
2785;BME280;57944;48.722;9.316;2023-09-19T02:22:01;97804.53;;;16.62;100.00
2785;BME280;57944;48.722;9.316;2023-09-19T02:24:35;97815.44;;;16.69;100.00
2785;BME280;57944;48.722;9.316;2023-09-19T02:27:06;97813.28;;;16.78;100.00
2785;BME280;57944;48.722;9.316;2023-09-19T02:29:40;97815.94;;;16.66;100.00
2785;BME280;57944;48.722;9.316;2023-09-19T02:32:11;97816.91;;;16.65;100.00
2785;BME280;57944;48.722;9.316;2023-09-19T02:34:44;97815.59;;;16.63;100.00
2785;BME280;57944;48.722;9.316;2023-09-19T02:37:15;97816.53;;;16.57;100.00
2785;BME280;57944;48.722;9.316;2023-09-19T02:39:47;97821.69;;;16.57;100.00
2785;BME280;57944;48.722;9.316;2023-09-19T02:42:18;97815.47;;;16.52;100.00
2785;BME280;57944;48.722;9.316;2023-09-19T02:44:49;97820.66;;;16.41;100.00
2785;BME280;57944;48.722;9.316;2023-09-19T02:47:19;97816.81;;;16.26;100.00
2785;BME280;57944;48.722;9.316;2023-09-19T02:49:53;97815.28;;;16.25;100.00
2785;BME280;57944;48.722;9.316;2023-09-19T02:52:24;97822.72;;;16.10;100.00
2785;BME280;57944;48.722;9.316;2023-09-19T02:54:55;97818.34;;;15.94;100.00
2785;BME280;57944;48.722;9.316;2023-09-19T02:57:26;97814.09;;;15.88;100.00
2785;BME280;57944;48.722;9.316;2023-09-19T02:59:57;97814.41;;;15.74;100.00
2785;BME280;57944;48.722;9.316;2023-09-19T03:02:29;97825.56;;;15.68;100.00
2785;BME280;57944;48.722;9.316;2023-09-19T03:05:04;97823.66;;;15.63;100.00
2785;BME280;57944;48.722;9.316;2023-09-19T03:07:35;97831.69;;;15.67;100.00
2785;BME280;57944;48.722;9.316;2023-09-19T03:10:07;97832.38;;;15.74;100.00
2785;BME280;57944;48.722;9.316;2023-09-19T03:12:38;97827.66;;;15.83;100.00
2785;BME280;57944;48.722;9.316;2023-09-19T03:15:10;97834.19;;;15.91;100.00
2785;BME280;57944;48.722;9.316;2023-09-19T03:17:43;97838.09;;;16.05;100.00
2785;BME280;57944;48.722;9.316;2023-09-19T03:20:22;97827.88;;;16.10;100.00
2785;BME280;57944;48.722;9.316;2023-09-19T03:22:53;97831.63;;;16.19;100.00
2785;BME280;57944;48.722;9.316;2023-09-19T03:25:25;97835.19;;;16.18;100.00
2785;BME280;57944;48.722;9.316;2023-09-19T03:27:57;97826.50;;;16.19;100.00
2785;BME280;57944;48.722;9.316;2023-09-19T03:30:29;97828.34;;;16.24;100.00
2785;BME280;57944;48.722;9.316;2023-09-19T03:33:02;97831.00;;;16.29;100.00
2785;BME280;57944;48.722;9.316;2023-09-19T03:35:37;97832.59;;;16.30;100.00
2785;BME280;57944;48.722;9.316;2023-09-19T03:38:09;97824.41;;;16.33;100.00
2785;BME280;57944;48.722;9.316;2023-09-19T03:40:39;97833.84;;;16.27;100.00
2785;BME280;57944;48.722;9.316;2023-09-19T03:43:10;97831.09;;;16.34;100.00
2785;BME280;57944;48.722;9.316;2023-09-19T03:45:40;97821.28;;;16.31;100.00
2785;BME280;57944;48.722;9.316;2023-09-19T03:48:13;97835.22;;;16.35;100.00
2785;BME280;57944;48.722;9.316;2023-09-19T03:50:46;97828.13;;;16.25;100.00
2785;BME280;57944;48.722;9.316;2023-09-19T03:53:17;97826.66;;;16.29;100.00
2785;BME280;57944;48.722;9.316;2023-09-19T03:55:48;97818.25;;;16.34;100.00
2785;BME280;57944;48.722;9.316;2023-09-19T03:58:19;97821.50;;;16.29;100.00
2785;BME280;57944;48.722;9.316;2023-09-19T04:00:49;97825.19;;;16.34;100.00
2785;BME280;57944;48.722;9.316;2023-09-19T04:03:21;97827.06;;;16.38;100.00
2785;BME280;57944;48.722;9.316;2023-09-19T04:05:55;97821.97;;;16.43;100.00
2785;BME280;57944;48.722;9.316;2023-09-19T04:08:25;97819.41;;;16.43;100.00
2785;BME280;57944;48.722;9.316;2023-09-19T04:10:55;97825.66;;;16.47;100.00
2785;BME280;57944;48.722;9.316;2023-09-19T04:13:29;97828.38;;;16.41;100.00
2785;BME280;57944;48.722;9.316;2023-09-19T04:16:00;97835.94;;;16.30;100.00
2785;BME280;57944;48.722;9.316;2023-09-19T04:18:31;97836.94;;;16.29;100.00
2785;BME280;57944;48.722;9.316;2023-09-19T04:21:08;97840.44;;;16.23;100.00
2785;BME280;57944;48.722;9.316;2023-09-19T04:23:39;97834.94;;;16.03;100.00
2785;BME280;57944;48.722;9.316;2023-09-19T04:26:10;97840.06;;;15.86;100.00
2785;BME280;57944;48.722;9.316;2023-09-19T04:28:41;97841.13;;;15.90;100.00
2785;BME280;57944;48.722;9.316;2023-09-19T04:31:14;97836.97;;;15.72;100.00
2785;BME280;57944;48.722;9.316;2023-09-19T04:33:46;97839.66;;;15.54;100.00
2785;BME280;57944;48.722;9.316;2023-09-19T04:36:19;97849.19;;;15.41;100.00
2785;BME280;57944;48.722;9.316;2023-09-19T04:39:02;97848.63;;;15.39;100.00
2785;BME280;57944;48.722;9.316;2023-09-19T04:41:35;97849.59;;;15.50;100.00
2785;BME280;57944;48.722;9.316;2023-09-19T04:44:06;97848.38;;;15.53;100.00
2785;BME280;57944;48.722;9.316;2023-09-19T04:46:37;97850.59;;;15.61;100.00
2785;BME280;57944;48.722;9.316;2023-09-19T04:49:08;97849.91;;;15.77;100.00
2785;BME280;57944;48.722;9.316;2023-09-19T04:51:41;97857.47;;;15.84;100.00
2785;BME280;57944;48.722;9.316;2023-09-19T04:54:14;97854.59;;;15.80;100.00
2785;BME280;57944;48.722;9.316;2023-09-19T04:56:45;97855.31;;;15.93;100.00
2785;BME280;57944;48.722;9.316;2023-09-19T04:59:16;97860.25;;;15.94;100.00
2785;BME280;57944;48.722;9.316;2023-09-19T05:01:47;97862.09;;;15.99;100.00
2785;BME280;57944;48.722;9.316;2023-09-19T05:04:17;97864.47;;;16.00;100.00
2785;BME280;57944;48.722;9.316;2023-09-19T05:06:50;97870.56;;;16.11;100.00
2785;BME280;57944;48.722;9.316;2023-09-19T05:09:21;97875.56;;;16.18;100.00
2785;BME280;57944;48.722;9.316;2023-09-19T05:11:52;97872.94;;;16.29;100.00
2785;BME280;57944;48.722;9.316;2023-09-19T05:14:24;97877.72;;;16.38;100.00
2785;BME280;57944;48.722;9.316;2023-09-19T05:16:54;97883.97;;;16.42;100.00
2785;BME280;57944;48.722;9.316;2023-09-19T05:19:25;97901.59;;;16.50;100.00
2785;BME280;57944;48.722;9.316;2023-09-19T05:21:58;97892.75;;;16.29;100.00
2785;BME280;57944;48.722;9.316;2023-09-19T05:24:29;97902.25;;;16.00;100.00
2785;BME280;57944;48.722;9.316;2023-09-19T05:26:59;97898.28;;;15.80;100.00
2785;BME280;57944;48.722;9.316;2023-09-19T05:29:31;97905.22;;;15.68;100.00
2785;BME280;57944;48.722;9.316;2023-09-19T05:32:02;97912.59;;;15.53;100.00
2785;BME280;57944;48.722;9.316;2023-09-19T05:34:33;97911.69;;;15.59;100.00
2785;BME280;57944;48.722;9.316;2023-09-19T05:37:06;97903.06;;;15.65;100.00
2785;BME280;57944;48.722;9.316;2023-09-19T05:39:37;97905.88;;;15.63;100.00
2785;BME280;57944;48.722;9.316;2023-09-19T05:42:07;97900.19;;;15.61;100.00
2785;BME280;57944;48.722;9.316;2023-09-19T05:44:38;97908.59;;;15.69;100.00
2785;BME280;57944;48.722;9.316;2023-09-19T05:47:08;97912.81;;;15.75;100.00
2785;BME280;57944;48.722;9.316;2023-09-19T05:49:40;97906.09;;;15.74;100.00
2785;BME280;57944;48.722;9.316;2023-09-19T05:52:14;97912.34;;;15.78;100.00
2785;BME280;57944;48.722;9.316;2023-09-19T05:54:45;97917.19;;;15.74;100.00
2785;BME280;57944;48.722;9.316;2023-09-19T05:57:18;97925.09;;;15.73;100.00
2785;BME280;57944;48.722;9.316;2023-09-19T05:59:49;97925.88;;;15.73;100.00
2785;BME280;57944;48.722;9.316;2023-09-19T06:02:20;97936.25;;;15.78;100.00
2785;BME280;57944;48.722;9.316;2023-09-19T06:04:51;97938.47;;;15.86;100.00
2785;BME280;57944;48.722;9.316;2023-09-19T06:07:25;97948.28;;;16.01;100.00
2785;BME280;57944;48.722;9.316;2023-09-19T06:10:04;97953.44;;;15.90;100.00
2785;BME280;57944;48.722;9.316;2023-09-19T06:12:38;97957.56;;;15.91;100.00
2785;BME280;57944;48.722;9.316;2023-09-19T06:15:13;97961.38;;;15.76;100.00
2785;BME280;57944;48.722;9.316;2023-09-19T06:17:47;97969.09;;;15.64;100.00
2785;BME280;57944;48.722;9.316;2023-09-19T06:20:18;97962.28;;;15.47;100.00
2785;BME280;57944;48.722;9.316;2023-09-19T06:22:53;97968.09;;;15.30;100.00
2785;BME280;57944;48.722;9.316;2023-09-19T06:25:24;97974.44;;;15.16;100.00
2785;BME280;57944;48.722;9.316;2023-09-19T06:27:55;97977.88;;;15.10;100.00
2785;BME280;57944;48.722;9.316;2023-09-19T06:30:26;97978.66;;;15.10;100.00
2785;BME280;57944;48.722;9.316;2023-09-19T06:32:57;97990.38;;;15.18;100.00
2785;BME280;57944;48.722;9.316;2023-09-19T06:35:29;97989.97;;;15.21;100.00
2785;BME280;57944;48.722;9.316;2023-09-19T06:38:05;97992.63;;;15.26;100.00
2785;BME280;57944;48.722;9.316;2023-09-19T06:40:36;97987.28;;;15.16;100.00
2785;BME280;57944;48.722;9.316;2023-09-19T06:43:07;97985.03;;;15.08;100.00
2785;BME280;57944;48.722;9.316;2023-09-19T06:45:38;97993.50;;;15.20;100.00
2785;BME280;57944;48.722;9.316;2023-09-19T06:48:10;97998.00;;;15.36;100.00
2785;BME280;57944;48.722;9.316;2023-09-19T06:50:40;98002.94;;;15.50;100.00
2785;BME280;57944;48.722;9.316;2023-09-19T06:53:14;98000.03;;;15.58;100.00
2785;BME280;57944;48.722;9.316;2023-09-19T06:55:45;98000.28;;;15.68;100.00
2785;BME280;57944;48.722;9.316;2023-09-19T06:58:16;97995.81;;;15.75;100.00
2785;BME280;57944;48.722;9.316;2023-09-19T07:00:48;98005.63;;;15.67;100.00
2785;BME280;57944;48.722;9.316;2023-09-19T07:03:18;98009.31;;;15.71;100.00
2785;BME280;57944;48.722;9.316;2023-09-19T07:05:53;98002.34;;;16.18;100.00
2785;BME280;57944;48.722;9.316;2023-09-19T07:08:26;98014.34;;;16.53;100.00
2785;BME280;57944;48.722;9.316;2023-09-19T07:10:57;98014.28;;;16.65;100.00
2785;BME280;57944;48.722;9.316;2023-09-19T07:13:27;98025.75;;;16.86;100.00
2785;BME280;57944;48.722;9.316;2023-09-19T07:15:59;98024.19;;;17.30;100.00
2785;BME280;57944;48.722;9.316;2023-09-19T07:18:29;98030.50;;;17.56;100.00
2785;BME280;57944;48.722;9.316;2023-09-19T07:21:00;98026.28;;;17.84;100.00
2785;BME280;57944;48.722;9.316;2023-09-19T07:23:35;98036.59;;;17.84;100.00
2785;BME280;57944;48.722;9.316;2023-09-19T07:26:06;98042.88;;;18.32;100.00
2785;BME280;57944;48.722;9.316;2023-09-19T07:28:37;98046.81;;;18.18;100.00
2785;BME280;57944;48.722;9.316;2023-09-19T07:31:07;98045.63;;;18.47;100.00
2785;BME280;57944;48.722;9.316;2023-09-19T07:33:39;98049.19;;;18.90;100.00
2785;BME280;57944;48.722;9.316;2023-09-19T07:36:11;98047.34;;;19.13;100.00
2785;BME280;57944;48.722;9.316;2023-09-19T07:38:45;98042.13;;;19.40;100.00
2785;BME280;57944;48.722;9.316;2023-09-19T07:41:15;98045.72;;;19.71;100.00
2785;BME280;57944;48.722;9.316;2023-09-19T07:43:46;98047.31;;;19.77;100.00
2785;BME280;57944;48.722;9.316;2023-09-19T07:46:17;98046.81;;;19.80;100.00
2785;BME280;57944;48.722;9.316;2023-09-19T07:48:48;98055.53;;;20.74;100.00
2785;BME280;57944;48.722;9.316;2023-09-19T07:51:19;98060.13;;;20.57;100.00
2785;BME280;57944;48.722;9.316;2023-09-19T07:53:52;98064.97;;;21.37;100.00
2785;BME280;57944;48.722;9.316;2023-09-19T07:56:23;98065.16;;;21.86;100.00
2785;BME280;57944;48.722;9.316;2023-09-19T07:58:55;98066.88;;;22.27;100.00
2785;BME280;57944;48.722;9.316;2023-09-19T08:01:27;98064.94;;;22.58;100.00
2785;BME280;57944;48.722;9.316;2023-09-19T08:03:57;98061.03;;;22.61;100.00
2785;BME280;57944;48.722;9.316;2023-09-19T08:06:28;98075.13;;;22.39;100.00
2785;BME280;57944;48.722;9.316;2023-09-19T08:09:02;98070.06;;;21.93;100.00
2785;BME280;57944;48.722;9.316;2023-09-19T08:11:35;98073.06;;;22.41;100.00
2785;BME280;57944;48.722;9.316;2023-09-19T08:14:06;98075.13;;;23.33;100.00
2785;BME280;57944;48.722;9.316;2023-09-19T08:16:41;98075.00;;;23.14;100.00
2785;BME280;57944;48.722;9.316;2023-09-19T08:19:13;98078.38;;;23.49;100.00
2785;BME280;57944;48.722;9.316;2023-09-19T08:21:44;98071.94;;;23.41;100.00
2785;BME280;57944;48.722;9.316;2023-09-19T08:24:20;98068.44;;;23.56;100.00
2785;BME280;57944;48.722;9.316;2023-09-19T08:26:50;98073.84;;;24.18;93.93
2785;BME280;57944;48.722;9.316;2023-09-19T08:29:22;98063.00;;;24.30;92.19
2785;BME280;57944;48.722;9.316;2023-09-19T08:31:55;98072.25;;;24.17;94.61
2785;BME280;57944;48.722;9.316;2023-09-19T08:34:26;98068.72;;;24.75;90.22
2785;BME280;57944;48.722;9.316;2023-09-19T08:36:59;98069.34;;;24.43;89.17
2785;BME280;57944;48.722;9.316;2023-09-19T08:39:32;98076.97;;;24.63;89.36
2785;BME280;57944;48.722;9.316;2023-09-19T08:42:04;98083.91;;;24.87;82.49
2785;BME280;57944;48.722;9.316;2023-09-19T08:44:37;98080.78;;;24.23;91.81
2785;BME280;57944;48.722;9.316;2023-09-19T08:47:10;98080.88;;;23.59;97.94
2785;BME280;57944;48.722;9.316;2023-09-19T08:49:49;98082.44;;;23.60;96.34
2785;BME280;57944;48.722;9.316;2023-09-19T08:52:27;98083.56;;;24.31;89.69
2785;BME280;57944;48.722;9.316;2023-09-19T08:55:03;98074.91;;;22.85;88.70
2785;BME280;57944;48.722;9.316;2023-09-19T08:57:37;98085.44;;;21.38;99.13
2785;BME280;57944;48.722;9.316;2023-09-19T09:00:13;98096.44;;;20.78;100.00
2785;BME280;57944;48.722;9.316;2023-09-19T09:02:45;98087.72;;;21.09;100.00
2785;BME280;57944;48.722;9.316;2023-09-19T09:05:17;98094.97;;;21.02;100.00
2785;BME280;57944;48.722;9.316;2023-09-19T09:07:51;98093.06;;;20.19;100.00
2785;BME280;57944;48.722;9.316;2023-09-19T09:10:26;98086.41;;;19.81;100.00
2785;BME280;57944;48.722;9.316;2023-09-19T09:12:59;98089.59;;;19.93;100.00
2785;BME280;57944;48.722;9.316;2023-09-19T09:15:31;98091.94;;;20.00;100.00
2785;BME280;57944;48.722;9.316;2023-09-19T09:18:05;98092.81;;;20.68;100.00
2785;BME280;57944;48.722;9.316;2023-09-19T09:20:36;98092.66;;;21.77;100.00
2785;BME280;57944;48.722;9.316;2023-09-19T09:23:07;98105.28;;;22.40;96.77
2785;BME280;57944;48.722;9.316;2023-09-19T09:25:50;98101.94;;;22.29;99.22
2785;BME280;57944;48.722;9.316;2023-09-19T09:28:28;98100.44;;;21.93;100.00
2785;BME280;57944;48.722;9.316;2023-09-19T09:31:01;98106.28;;;23.44;87.13
2785;BME280;57944;48.722;9.316;2023-09-19T09:33:36;98095.34;;;24.91;77.47
2785;BME280;57944;48.722;9.316;2023-09-19T09:36:07;98093.97;;;25.31;65.64
2785;BME280;57944;48.722;9.316;2023-09-19T09:38:45;98100.59;;;24.00;64.71
2785;BME280;57944;48.722;9.316;2023-09-19T09:41:19;98089.84;;;22.64;67.36
2785;BME280;57944;48.722;9.316;2023-09-19T09:43:55;98092.03;;;22.96;77.47
2785;BME280;57944;48.722;9.316;2023-09-19T09:46:27;98102.50;;;22.76;74.35
2785;BME280;57944;48.722;9.316;2023-09-19T09:49:23;98082.97;;;22.84;69.54
2785;BME280;57944;48.722;9.316;2023-09-19T09:52:03;98098.09;;;22.77;68.07
2785;BME280;57944;48.722;9.316;2023-09-19T09:54:59;98099.63;;;22.13;77.39
2785;BME280;57944;48.722;9.316;2023-09-19T09:57:36;98100.72;;;21.45;76.46
2785;BME280;57944;48.722;9.316;2023-09-19T10:00:11;98097.59;;;21.17;74.59
2785;BME280;57944;48.722;9.316;2023-09-19T10:02:48;98098.03;;;20.79;78.94
2785;BME280;57944;48.722;9.316;2023-09-19T10:05:20;98093.75;;;20.52;82.89
2785;BME280;57944;48.722;9.316;2023-09-19T10:08:11;98088.53;;;20.47;83.67
2785;BME280;57944;48.722;9.316;2023-09-19T10:10:46;98095.72;;;20.29;82.80
2785;BME280;57944;48.722;9.316;2023-09-19T10:13:37;98097.91;;;20.53;79.06
2785;BME280;57944;48.722;9.316;2023-09-19T10:16:10;98091.81;;;20.85;75.99
2785;BME280;57944;48.722;9.316;2023-09-19T10:18:43;98095.50;;;21.91;70.90
2785;BME280;57944;48.722;9.316;2023-09-19T10:21:14;98092.09;;;22.76;63.20
2785;BME280;57944;48.722;9.316;2023-09-19T10:23:50;98099.03;;;22.36;62.96
2785;BME280;57944;48.722;9.316;2023-09-19T10:26:25;98095.50;;;21.96;65.98
2785;BME280;57944;48.722;9.316;2023-09-19T10:29:02;98097.09;;;21.41;70.77
2785;BME280;57944;48.722;9.316;2023-09-19T10:31:36;98089.53;;;21.04;73.47
2785;BME280;57944;48.722;9.316;2023-09-19T10:34:09;98093.94;;;21.13;70.08
2785;BME280;57944;48.722;9.316;2023-09-19T10:36:45;98089.56;;;22.66;62.71
2785;BME280;57944;48.722;9.316;2023-09-19T10:39:16;98082.81;;;23.49;55.70
2785;BME280;57944;48.722;9.316;2023-09-19T10:41:51;98082.41;;;23.66;54.21
2785;BME280;57944;48.722;9.316;2023-09-19T10:44:33;98076.44;;;23.94;53.50
2785;BME280;57944;48.722;9.316;2023-09-19T10:47:04;98080.19;;;24.93;51.68
2785;BME280;57944;48.722;9.316;2023-09-19T10:49:42;98085.63;;;25.15;49.39
2785;BME280;57944;48.722;9.316;2023-09-19T10:52:15;98086.31;;;25.54;47.69
2785;BME280;57944;48.722;9.316;2023-09-19T10:54:49;98091.63;;;25.16;49.73
2785;BME280;57944;48.722;9.316;2023-09-19T10:57:23;98084.50;;;25.22;49.68
2785;BME280;57944;48.722;9.316;2023-09-19T11:00:05;98093.81;;;25.88;45.95
2785;BME280;57944;48.722;9.316;2023-09-19T11:03:17;98091.78;;;25.38;47.30
2785;BME280;57944;48.722;9.316;2023-09-19T11:06:11;98086.72;;;24.90;49.73
2785;BME280;57944;48.722;9.316;2023-09-19T11:08:59;98082.34;;;25.24;48.10
2785;BME280;57944;48.722;9.316;2023-09-19T11:11:44;98079.81;;;26.12;47.20
2785;BME280;57944;48.722;9.316;2023-09-19T11:14:41;98081.34;;;26.40;45.08
2785;BME280;57944;48.722;9.316;2023-09-19T11:17:33;98079.91;;;26.34;44.80
2785;BME280;57944;48.722;9.316;2023-09-19T11:20:23;98075.41;;;25.19;47.13
2785;BME280;57944;48.722;9.316;2023-09-19T11:23:23;98065.84;;;25.09;47.37
2785;BME280;57944;48.722;9.316;2023-09-19T11:25:58;98066.22;;;25.68;47.29
2785;BME280;57944;48.722;9.316;2023-09-19T11:28:34;98068.03;;;25.87;46.33
2785;BME280;57944;48.722;9.316;2023-09-19T11:31:41;98058.66;;;25.39;46.33
2785;BME280;57944;48.722;9.316;2023-09-19T11:34:40;98066.25;;;25.82;45.18
2785;BME280;57944;48.722;9.316;2023-09-19T11:40:14;98059.34;;;23.54;50.70
2785;BME280;57944;48.722;9.316;2023-09-19T11:42:47;98055.97;;;24.06;48.79
2785;BME280;57944;48.722;9.316;2023-09-19T11:48:30;98048.16;;;24.30;49.07
2785;BME280;57944;48.722;9.316;2023-09-19T11:51:13;98048.94;;;24.07;51.21
2785;BME280;57944;48.722;9.316;2023-09-19T11:53:55;98056.16;;;25.61;46.83
2785;BME280;57944;48.722;9.316;2023-09-19T11:56:28;98049.03;;;25.67;45.32
2785;BME280;57944;48.722;9.316;2023-09-19T11:58:59;98041.31;;;26.17;46.05
2785;BME280;57944;48.722;9.316;2023-09-19T12:01:32;98056.91;;;25.95;44.93
2785;BME280;57944;48.722;9.316;2023-09-19T12:04:03;98052.03;;;25.28;45.95
2785;BME280;57944;48.722;9.316;2023-09-19T12:06:37;98049.06;;;24.40;48.05
2785;BME280;57944;48.722;9.316;2023-09-19T12:09:13;98042.22;;;24.87;47.80
2785;BME280;57944;48.722;9.316;2023-09-19T12:11:44;98034.69;;;24.85;47.90
2785;BME280;57944;48.722;9.316;2023-09-19T12:14:22;98034.75;;;24.99;48.83
2785;BME280;57944;48.722;9.316;2023-09-19T12:16:57;98039.53;;;25.71;46.56
2785;BME280;57944;48.722;9.316;2023-09-19T12:19:30;98035.63;;;25.88;45.53
2785;BME280;57944;48.722;9.316;2023-09-19T12:22:04;98042.28;;;25.80;46.06
2785;BME280;57944;48.722;9.316;2023-09-19T12:24:36;98041.28;;;25.76;46.97
2785;BME280;57944;48.722;9.316;2023-09-19T12:27:12;98027.75;;;26.29;45.35
2785;BME280;57944;48.722;9.316;2023-09-19T12:29:44;98021.38;;;25.52;46.32
2785;BME280;57944;48.722;9.316;2023-09-19T12:32:16;98015.69;;;25.17;47.83
2785;BME280;57944;48.722;9.316;2023-09-19T12:34:52;98011.06;;;23.96;51.84
2785;BME280;57944;48.722;9.316;2023-09-19T12:37:25;98017.06;;;23.96;53.36
2785;BME280;57944;48.722;9.316;2023-09-19T12:40:06;98015.53;;;23.08;55.94
2785;BME280;57944;48.722;9.316;2023-09-19T12:42:46;98011.31;;;23.12;56.50
2785;BME280;57944;48.722;9.316;2023-09-19T12:45:17;98013.41;;;22.70;60.33
2785;BME280;57944;48.722;9.316;2023-09-19T12:51:02;98009.78;;;22.17;60.10
2785;BME280;57944;48.722;9.316;2023-09-19T12:53:38;98000.00;;;21.98;61.04
2785;BME280;57944;48.722;9.316;2023-09-19T12:56:13;98010.72;;;22.46;61.03
2785;BME280;57944;48.722;9.316;2023-09-19T12:58:51;98002.94;;;22.41;61.42
2785;BME280;57944;48.722;9.316;2023-09-19T13:01:24;98003.00;;;22.75;64.85
2785;BME280;57944;48.722;9.316;2023-09-19T13:04:15;98000.16;;;23.11;57.73
2785;BME280;57944;48.722;9.316;2023-09-19T13:06:48;98000.41;;;23.68;56.03
2785;BME280;57944;48.722;9.316;2023-09-19T13:09:22;97999.41;;;23.93;54.15
2785;BME280;57944;48.722;9.316;2023-09-19T13:11:59;97998.19;;;24.66;50.10
2785;BME280;57944;48.722;9.316;2023-09-19T13:14:31;97984.97;;;24.44;49.32
2785;BME280;57944;48.722;9.316;2023-09-19T13:17:08;98002.19;;;25.43;48.62
2785;BME280;57944;48.722;9.316;2023-09-19T13:19:45;97994.69;;;25.55;46.93
2785;BME280;57944;48.722;9.316;2023-09-19T13:22:39;98002.63;;;26.19;45.84
2785;BME280;57944;48.722;9.316;2023-09-19T13:25:15;97989.31;;;26.88;44.19
2785;BME280;57944;48.722;9.316;2023-09-19T13:27:47;97993.53;;;27.92;43.06
2785;BME280;57944;48.722;9.316;2023-09-19T13:30:21;97996.63;;;27.54;42.77
2785;BME280;57944;48.722;9.316;2023-09-19T13:33:03;97981.22;;;27.21;43.76
2785;BME280;57944;48.722;9.316;2023-09-19T13:35:35;97984.00;;;28.04;41.92
2785;BME280;57944;48.722;9.316;2023-09-19T13:38:08;97988.16;;;26.72;43.86
2785;BME280;57944;48.722;9.316;2023-09-19T13:40:43;97983.00;;;27.12;44.80
2785;BME280;57944;48.722;9.316;2023-09-19T13:43:13;97979.66;;;26.66;44.37
2785;BME280;57944;48.722;9.316;2023-09-19T13:45:44;97984.81;;;26.58;44.15
2785;BME280;57944;48.722;9.316;2023-09-19T13:48:14;97989.59;;;25.92;45.62
2785;BME280;57944;48.722;9.316;2023-09-19T13:50:50;97972.38;;;26.63;44.00
2785;BME280;57944;48.722;9.316;2023-09-19T13:53:20;97967.91;;;26.41;45.22
2785;BME280;57944;48.722;9.316;2023-09-19T13:55:53;97973.41;;;25.62;45.16